Time;durP1;ratioP1;P1;durP2;ratioP2;P2;SDS_P1;SDS_P2;PMS_P1;PMS_P2;Temp;Humidity;BMP_temperature;BMP_pressure;BME280_temperature;BME280_humidity;BME280_pressure;Samples;Min_cycle;Max_cycle;Signal;HPM_P1;HPM_P2
2023/05/26 00:00:21;;;;;;;21.65;7.80;;;10.20;99.90;;;;;;5016507;28;20176;-86
2023/05/26 00:02:47;;;;;;;25.10;7.32;;;10.20;99.90;;;;;;5017091;28;20251;-86
2023/05/26 00:05:16;;;;;;;19.52;6.60;;;10.10;99.90;;;;;;5018386;28;20223;-86
2023/05/26 00:07:43;;;;;;;25.77;7.97;;;10.00;99.90;;;;;;5018286;28;20179;-85
2023/05/26 00:10:09;;;;;;;23.23;6.75;;;10.10;99.90;;;;;;5017172;28;20524;-85
2023/05/26 00:12:36;;;;;;;21.30;6.90;;;10.00;99.90;;;;;;5016830;28;20175;-85
2023/05/26 00:15:03;;;;;;;22.17;7.10;;;10.00;99.90;;;;;;5016915;28;20223;-85
2023/05/26 00:17:29;;;;;;;19.17;6.65;;;10.00;99.90;;;;;;5018897;28;20672;-85
2023/05/26 00:19:59;;;;;;;23.80;6.60;;;9.90;99.90;;;;;;5017560;28;20255;-88
2023/05/26 00:22:26;;;;;;;25.50;7.15;;;9.90;99.90;;;;;;5017400;28;20164;-87
2023/05/26 00:24:52;;;;;;;25.35;8.00;;;9.90;99.90;;;;;;5017327;28;20203;-87
2023/05/26 00:27:18;;;;;;;18.92;6.38;;;9.90;99.90;;;;;;5017398;28;20184;-87
2023/05/26 00:29:44;;;;;;;25.77;6.05;;;9.80;99.90;;;;;;5017476;28;20234;-87
2023/05/26 00:32:10;;;;;;;24.15;7.05;;;9.80;99.90;;;;;;5018521;28;20641;-88
2023/05/26 00:34:36;;;;;;;20.10;6.55;;;9.70;99.90;;;;;;5017673;28;20196;-87
2023/05/26 00:37:02;;;;;;;18.38;6.90;;;9.70;99.90;;;;;;5017554;28;20271;-88
2023/05/26 00:39:29;;;;;;;17.98;6.38;;;9.70;99.90;;;;;;5017408;28;20184;-87
2023/05/26 00:41:55;;;;;;;22.52;6.78;;;9.70;99.90;;;;;;5019107;28;20175;-88
2023/05/26 00:44:22;;;;;;;22.20;6.97;;;9.70;99.90;;;;;;5017341;28;20204;-88
2023/05/26 00:46:48;;;;;;;22.90;6.82;;;9.60;99.90;;;;;;5017163;28;20189;-88
2023/05/26 00:49:14;;;;;;;20.50;6.75;;;9.70;99.90;;;;;;5016786;28;20212;-87
2023/05/26 00:51:40;;;;;;;25.75;7.70;;;9.60;99.90;;;;;;5016827;28;20175;-87
2023/05/26 00:54:09;;;;;;;24.73;6.63;;;9.60;99.90;;;;;;5018050;28;20227;-87
2023/05/26 00:56:35;;;;;;;20.38;7.25;;;9.50;99.90;;;;;;5017840;28;20172;-87
2023/05/26 00:59:03;;;;;;;21.52;7.15;;;9.30;99.90;;;;;;5017364;28;20234;-87
2023/05/26 01:01:32;;;;;;;21.63;6.97;;;9.20;99.90;;;;;;5017536;28;20184;-88
2023/05/26 01:03:59;;;;;;;20.58;7.13;;;9.10;99.90;;;;;;5017208;28;20569;-88
2023/05/26 01:06:25;;;;;;;22.30;7.40;;;9.10;99.90;;;;;;5018615;28;20179;-89
2023/05/26 01:08:51;;;;;;;22.55;6.75;;;9.00;99.90;;;;;;5019100;28;20315;-89
2023/05/26 01:11:32;;;;;;;19.38;7.40;;;9.00;99.90;;;;;;5016934;28;20191;-90
2023/05/26 01:14:05;;;;;;;23.92;7.00;;;9.00;99.90;;;;;;5017754;28;20227;-90
2023/05/26 01:16:53;;;;;;;25.58;7.43;;;9.00;99.90;;;;;;5017081;28;20167;-87
2023/05/26 01:19:54;;;;;;;24.48;7.03;;;9.00;99.90;;;;;;5016699;28;20221;-87
2023/05/26 01:22:38;;;;;;;22.80;7.15;;;9.00;99.90;;;;;;5016465;28;20167;-87
2023/05/26 01:25:41;;;;;;;28.55;8.05;;;9.10;99.90;;;;;;5016300;28;20695;-87
2023/05/26 01:28:16;;;;;;;20.58;6.88;;;9.00;99.90;;;;;;5017206;28;20606;-87
2023/05/26 01:30:47;;;;;;;25.35;6.57;;;9.00;99.90;;;;;;5016173;28;20260;-87
2023/05/26 01:33:13;;;;;;;20.88;6.85;;;9.10;99.90;;;;;;5017389;28;20196;-87
2023/05/26 01:35:38;;;;;;;21.00;6.97;;;9.00;99.90;;;;;;5016281;28;20179;-87
2023/05/26 01:38:05;;;;;;;25.92;7.70;;;9.00;99.90;;;;;;5016330;28;20184;-87
2023/05/26 01:40:32;;;;;;;21.58;7.32;;;9.00;99.90;;;;;;5016169;28;20180;-87
2023/05/26 01:43:11;;;;;;;18.58;6.80;;;8.90;99.90;;;;;;5015710;28;20263;-86
2023/05/26 01:45:44;;;;;;;26.13;7.30;;;8.90;99.90;;;;;;5015409;28;20170;-86
2023/05/26 01:48:12;;;;;;;23.80;7.53;;;8.90;99.90;;;;;;5015458;28;20215;-86
2023/05/26 01:50:51;;;;;;;26.52;8.15;;;8.90;99.90;;;;;;5015295;28;20176;-86
2023/05/26 01:53:20;;;;;;;22.58;7.22;;;9.00;99.90;;;;;;5015735;28;20628;-86
2023/05/26 01:55:48;;;;;;;26.95;7.13;;;8.90;99.90;;;;;;5015275;28;20187;-86
2023/05/26 01:58:15;;;;;;;28.90;8.68;;;8.90;99.90;;;;;;5015324;28;20641;-86
2023/05/26 02:00:47;;;;;;;23.83;6.90;;;8.80;99.90;;;;;;5015448;28;20202;-87
2023/05/26 02:03:14;;;;;;;19.60;7.38;;;8.80;99.90;;;;;;5015200;28;20267;-86
2023/05/26 02:05:40;;;;;;;22.42;7.30;;;8.70;99.90;;;;;;5016269;28;20226;-86
2023/05/26 02:08:06;;;;;;;21.10;6.70;;;8.50;99.90;;;;;;5016379;28;20609;-86
2023/05/26 02:10:32;;;;;;;23.05;6.68;;;8.40;99.90;;;;;;5015277;28;20171;-86
2023/05/26 02:12:58;;;;;;;23.52;7.85;;;8.30;99.90;;;;;;5015777;28;20214;-86
2023/05/26 02:15:23;;;;;;;19.33;7.13;;;8.20;99.90;;;;;;5015220;28;20200;-86
2023/05/26 02:17:49;;;;;;;27.75;7.32;;;8.20;99.90;;;;;;5015181;28;20644;-86
2023/05/26 02:20:18;;;;;;;22.35;7.38;;;8.20;99.90;;;;;;5015116;28;20179;-87
2023/05/26 02:22:44;;;;;;;23.73;7.10;;;8.20;99.90;;;;;;5016190;28;20633;-86
2023/05/26 02:25:09;;;;;;;23.27;7.43;;;8.20;99.90;;;;;;5015409;28;20207;-87
2023/05/26 02:27:35;;;;;;;21.53;7.00;;;8.20;99.90;;;;;;5015188;28;20270;-87
2023/05/26 02:30:01;;;;;;;28.20;8.63;;;8.40;99.90;;;;;;5015617;28;20200;-87
2023/05/26 02:32:29;;;;;;;24.80;7.20;;;8.50;99.90;;;;;;5015469;28;20175;-87
2023/05/26 02:34:56;;;;;;;21.13;6.68;;;8.60;99.90;;;;;;5014846;28;20196;-85
2023/05/26 02:37:22;;;;;;;23.67;7.53;;;8.70;99.90;;;;;;5016352;28;20220;-85
2023/05/26 02:39:48;;;;;;;18.38;6.32;;;8.80;99.90;;;;;;5014904;28;20184;-86
2023/05/26 02:42:13;;;;;;;17.60;7.55;;;8.80;99.90;;;;;;5015283;28;20219;-85
2023/05/26 02:44:39;;;;;;;28.48;7.47;;;8.80;99.90;;;;;;5016868;28;20223;-89
2023/05/26 02:47:05;;;;;;;25.00;7.28;;;8.80;99.90;;;;;;5015471;28;20573;-88
2023/05/26 02:49:31;;;;;;;24.85;6.32;;;8.80;99.90;;;;;;5016911;28;20210;-89
2023/05/26 02:51:57;;;;;;;24.38;8.48;;;8.80;99.90;;;;;;5015352;28;20186;-88
2023/05/26 02:54:22;;;;;;;25.47;7.10;;;8.80;99.90;;;;;;5015287;28;20219;-89
2023/05/26 02:56:48;;;;;;;23.10;7.50;;;8.80;99.90;;;;;;5015599;28;20597;-88
2023/05/26 02:59:14;;;;;;;24.52;6.93;;;8.80;99.90;;;;;;5022054;28;20218;-88
2023/05/26 03:01:40;;;;;;;27.60;8.40;;;8.80;99.90;;;;;;5015824;28;20565;-88
2023/05/26 03:04:05;;;;;;;23.60;8.23;;;8.80;99.90;;;;;;5015293;28;20275;-88
2023/05/26 03:06:41;;;;;;;24.67;7.40;;;8.80;99.90;;;;;;5015074;28;20214;-87
2023/05/26 03:09:10;;;;;;;25.80;7.07;;;8.70;99.90;;;;;;5014869;28;20310;-87
2023/05/26 03:11:36;;;;;;;27.40;7.23;;;8.70;99.90;;;;;;5014971;28;20249;-87
2023/05/26 03:14:02;;;;;;;22.93;7.23;;;8.70;99.90;;;;;;5016261;28;20230;-88
2023/05/26 03:16:28;;;;;;;24.13;7.07;;;8.70;99.90;;;;;;5015121;28;20179;-84
2023/05/26 03:18:54;;;;;;;25.08;7.90;;;8.70;99.90;;;;;;5015627;28;20211;-84
2023/05/26 03:21:20;;;;;;;22.52;6.50;;;8.70;99.90;;;;;;5016941;28;20559;-85
2023/05/26 03:23:46;;;;;;;25.45;8.40;;;8.70;99.90;;;;;;5015194;28;20283;-84
2023/05/26 03:26:11;;;;;;;32.63;11.90;;;8.70;99.90;;;;;;5016171;28;20664;-84
2023/05/26 03:28:37;;;;;;;31.50;10.95;;;8.70;99.90;;;;;;5017462;28;20187;-84
2023/05/26 03:31:03;;;;;;;21.00;9.70;;;8.70;99.90;;;;;;5015303;28;20160;-85
2023/05/26 03:33:31;;;;;;;25.87;7.80;;;8.60;99.90;;;;;;5015511;28;20266;-85
2023/05/26 03:35:59;;;;;;;23.55;7.63;;;8.60;99.90;;;;;;5020325;28;20517;-85
2023/05/26 03:38:25;;;;;;;24.13;7.90;;;8.50;99.90;;;;;;5020413;28;20171;-85
2023/05/26 03:40:50;;;;;;;21.30;7.38;;;8.40;99.90;;;;;;5020175;28;20182;-85
2023/05/26 03:43:16;;;;;;;25.77;7.57;;;8.30;99.90;;;;;;5019192;28;20545;-85
2023/05/26 03:45:42;;;;;;;27.67;7.85;;;8.30;99.90;;;;;;5019397;28;20188;-85
2023/05/26 03:48:12;;;;;;;27.30;9.40;;;8.40;99.90;;;;;;5019413;28;20256;-82
2023/05/26 03:50:38;;;;;;;28.15;9.27;;;8.50;99.90;;;;;;5020615;28;20295;-82
2023/05/26 03:53:04;;;;;;;29.97;8.57;;;8.40;99.90;;;;;;5020566;28;20176;-82
2023/05/26 03:55:33;;;;;;;25.25;8.43;;;8.40;99.90;;;;;;5022254;28;20176;-82
2023/05/26 03:57:59;;;;;;;27.40;8.70;;;8.50;99.90;;;;;;5020779;28;20180;-82
2023/05/26 04:00:30;;;;;;;21.20;7.63;;;8.50;99.90;;;;;;5021568;28;20176;-83
2023/05/26 04:02:56;;;;;;;25.97;8.07;;;8.50;99.90;;;;;;5021378;28;20195;-85
2023/05/26 04:05:22;;;;;;;29.80;9.03;;;8.50;99.90;;;;;;5022475;28;20196;-85
2023/05/26 04:07:47;;;;;;;30.48;7.88;;;8.50;99.90;;;;;;5023489;28;20190;-85
2023/05/26 04:10:13;;;;;;;33.95;9.27;;;8.50;99.90;;;;;;5023121;28;20180;-85
2023/05/26 04:12:39;;;;;;;20.73;7.80;;;8.60;99.90;;;;;;5019782;28;20190;-84
2023/05/26 04:15:05;;;;;;;27.33;8.87;;;8.60;99.90;;;;;;5020188;28;20664;-85
2023/05/26 04:17:31;;;;;;;19.30;7.78;;;8.60;99.90;;;;;;5019347;28;20325;-85
2023/05/26 04:19:57;;;;;;;22.90;8.10;;;8.60;99.90;;;;;;5020191;28;20218;-86
2023/05/26 04:22:24;;;;;;;24.77;8.23;;;8.60;99.90;;;;;;5018432;28;20180;-87
2023/05/26 04:24:50;;;;;;;27.52;7.72;;;8.70;99.90;;;;;;5021342;28;20234;-86
2023/05/26 04:27:16;;;;;;;23.00;8.05;;;8.80;99.90;;;;;;5021651;28;20230;-86
2023/05/26 04:29:42;;;;;;;28.50;8.07;;;8.80;99.90;;;;;;5020565;28;20207;-86
2023/05/26 04:32:11;;;;;;;31.52;8.90;;;8.80;99.90;;;;;;5018134;28;20271;-87
2023/05/26 04:34:38;;;;;;;19.38;7.95;;;8.80;99.90;;;;;;5018034;28;20565;-86
2023/05/26 04:37:04;;;;;;;19.80;7.60;;;8.90;99.90;;;;;;5017469;28;20184;-86
2023/05/26 04:39:33;;;;;;;30.33;8.95;;;8.90;99.90;;;;;;5017826;28;20190;-86
2023/05/26 04:41:59;;;;;;;30.15;8.20;;;8.90;99.90;;;;;;5017640;28;20706;-86
2023/05/26 04:44:25;;;;;;;33.28;9.82;;;8.90;99.90;;;;;;5017828;28;20242;-86
2023/05/26 04:46:52;;;;;;;32.88;8.30;;;9.00;99.90;;;;;;5017605;28;20200;-86
2023/05/26 04:49:22;;;;;;;26.23;9.33;;;8.90;99.90;;;;;;5015096;28;20264;-86
2023/05/26 04:51:50;;;;;;;24.38;8.27;;;8.90;99.90;;;;;;5014963;28;20187;-86
2023/05/26 04:54:16;;;;;;;28.20;8.77;;;8.90;99.90;;;;;;5015271;28;20200;-86
2023/05/26 04:56:41;;;;;;;30.92;9.77;;;8.90;99.90;;;;;;5015649;28;20184;-86
2023/05/26 04:59:07;;;;;;;23.23;8.15;;;8.90;99.90;;;;;;5015040;28;20644;-86
2023/05/26 05:01:33;;;;;;;25.08;8.45;;;8.90;99.90;;;;;;5014948;28;20184;-87
2023/05/26 05:03:59;;;;;;;31.43;9.53;;;9.00;99.90;;;;;;5014555;28;20571;-86
2023/05/26 05:06:25;;;;;;;30.80;10.00;;;9.00;99.90;;;;;;5014832;28;20184;-86
2023/05/26 05:08:50;;;;;;;28.87;9.07;;;9.10;99.90;;;;;;5014282;28;20200;-86
2023/05/26 05:11:16;;;;;;;33.38;10.00;;;9.10;99.90;;;;;;5014902;28;20176;-86
2023/05/26 05:13:42;;;;;;;24.30;8.93;;;9.20;99.90;;;;;;5014935;28;20231;-86
2023/05/26 05:16:08;;;;;;;26.47;9.67;;;9.20;99.90;;;;;;5014863;28;20266;-86
2023/05/26 05:18:34;;;;;;;23.00;9.18;;;9.20;99.90;;;;;;5015579;28;20200;-86
2023/05/26 05:21:00;;;;;;;30.27;9.23;;;9.30;99.90;;;;;;5015208;28;20229;-86
2023/05/26 05:23:26;;;;;;;29.27;8.52;;;9.30;99.90;;;;;;5013908;28;20207;-86
2023/05/26 05:25:52;;;;;;;30.97;10.17;;;9.40;99.90;;;;;;5014223;28;20190;-85
2023/05/26 05:28:18;;;;;;;27.03;9.13;;;9.30;99.90;;;;;;5013824;28;20811;-86
2023/05/26 05:30:44;;;;;;;27.05;8.40;;;9.30;99.90;;;;;;5013994;28;20208;-86
2023/05/26 05:33:10;;;;;;;34.97;9.82;;;9.40;99.90;;;;;;5013709;28;20666;-87
2023/05/26 05:35:35;;;;;;;31.45;8.90;;;9.40;99.90;;;;;;5014400;28;20184;-86
2023/05/26 05:38:07;;;;;;;43.35;9.63;;;9.40;99.90;;;;;;5013652;28;20717;-86
2023/05/26 05:40:33;;;;;;;27.50;8.97;;;9.40;99.90;;;;;;5014034;28;20665;-86
2023/05/26 05:43:00;;;;;;;30.75;9.23;;;9.40;99.90;;;;;;5013637;28;20179;-85
2023/05/26 05:45:26;;;;;;;27.25;9.32;;;9.50;99.90;;;;;;5013467;28;20195;-86
2023/05/26 05:47:52;;;;;;;31.38;8.73;;;9.50;99.90;;;;;;5013678;28;20191;-86
2023/05/26 05:50:18;;;;;;;24.33;10.07;;;9.60;99.90;;;;;;5015604;28;20218;-86
2023/05/26 05:52:44;;;;;;;28.58;9.93;;;9.60;99.90;;;;;;5013954;28;20171;-85
2023/05/26 05:55:11;;;;;;;26.85;9.93;;;9.60;99.90;;;;;;5014889;28;20207;-86
2023/05/26 05:57:36;;;;;;;28.25;9.20;;;9.60;99.90;;;;;;5013235;28;20179;-85
2023/05/26 06:00:07;;;;;;;31.75;9.73;;;9.70;99.90;;;;;;5013607;28;20529;-85
2023/05/26 06:02:33;;;;;;;32.17;9.57;;;9.70;99.90;;;;;;5013797;28;20191;-86
2023/05/26 06:04:59;;;;;;;27.90;9.82;;;9.80;99.90;;;;;;5013513;28;20207;-86
2023/05/26 06:07:25;;;;;;;30.92;9.65;;;9.80;99.90;;;;;;5013471;28;20221;-85
2023/05/26 06:09:50;;;;;;;26.55;10.15;;;9.80;99.90;;;;;;5013250;28;20254;-85
2023/05/26 06:12:16;;;;;;;33.83;10.32;;;9.90;99.90;;;;;;5013595;28;20206;-86
2023/05/26 06:14:42;;;;;;;30.00;10.90;;;9.90;99.90;;;;;;5013293;28;20250;-86
2023/05/26 06:17:07;;;;;;;31.42;10.57;;;9.90;99.90;;;;;;5013401;28;20180;-86
2023/05/26 06:19:33;;;;;;;24.70;10.45;;;9.90;99.90;;;;;;5013366;28;20179;-86
2023/05/26 06:21:59;;;;;;;34.97;10.20;;;10.00;99.90;;;;;;5013265;28;20176;-86
2023/05/26 06:24:24;;;;;;;35.20;11.60;;;10.00;99.90;;;;;;5013580;28;20200;-86
2023/05/26 06:26:50;;;;;;;23.38;10.50;;;10.10;99.90;;;;;;5013379;28;20656;-86
2023/05/26 06:29:16;;;;;;;29.27;11.15;;;10.10;99.90;;;;;;5013249;28;20192;-86
2023/05/26 06:31:43;;;;;;;32.80;11.15;;;10.20;99.90;;;;;;5013253;28;20266;-86
2023/05/26 06:34:09;;;;;;;34.38;11.25;;;10.20;99.90;;;;;;5014269;28;20231;-86
2023/05/26 06:36:35;;;;;;;32.17;11.00;;;10.20;99.90;;;;;;5013406;28;20180;-86
2023/05/26 06:39:01;;;;;;;37.03;11.63;;;10.20;99.90;;;;;;5013310;28;20175;-86
2023/05/26 06:41:27;;;;;;;30.77;11.35;;;10.30;99.90;;;;;;5013417;28;20179;-86
2023/05/26 06:43:54;;;;;;;30.17;11.48;;;10.30;99.90;;;;;;5014368;28;20758;-85
2023/05/26 06:46:19;;;;;;;34.40;10.80;;;10.30;99.90;;;;;;5015383;28;20684;-86
2023/05/26 06:48:45;;;;;;;20.23;9.57;;;10.30;99.90;;;;;;5014095;28;20203;-86
2023/05/26 06:51:11;;;;;;;33.92;11.13;;;10.40;99.90;;;;;;5013239;28;20270;-86
2023/05/26 06:53:38;;;;;;;23.08;10.52;;;10.40;99.90;;;;;;5013372;28;20242;-87
2023/05/26 06:56:05;;;;;;;25.73;9.77;;;10.40;99.90;;;;;;5014111;28;20175;-86
2023/05/26 06:58:31;;;;;;;31.85;10.35;;;10.40;99.90;;;;;;5014486;28;20202;-86
2023/05/26 07:01:03;;;;;;;27.30;10.40;;;10.40;99.90;;;;;;5012772;28;20180;-86
2023/05/26 07:03:30;;;;;;;27.35;9.85;;;10.40;99.90;;;;;;5013139;28;20699;-86
2023/05/26 07:05:57;;;;;;;28.25;10.18;;;10.50;99.90;;;;;;5013849;28;20275;-86
2023/05/26 07:08:23;;;;;;;30.17;10.50;;;10.50;99.90;;;;;;5013819;28;20183;-86
2023/05/26 07:10:49;;;;;;;32.85;11.43;;;10.50;99.90;;;;;;5016603;28;20182;-86
2023/05/26 07:13:15;;;;;;;36.10;11.27;;;10.60;99.90;;;;;;5016618;28;20176;-86
2023/05/26 07:15:42;;;;;;;28.15;11.43;;;10.50;99.90;;;;;;5016346;28;20186;-86
2023/05/26 07:18:08;;;;;;;31.55;10.85;;;10.60;99.90;;;;;;5016516;28;20731;-86
2023/05/26 07:20:34;;;;;;;30.35;11.23;;;10.80;99.90;;;;;;5017640;28;20172;-86
2023/05/26 07:23:00;;;;;;;31.63;11.55;;;10.80;99.90;;;;;;5016463;28;20190;-86
2023/05/26 07:25:26;;;;;;;34.03;9.88;;;10.70;99.90;;;;;;5016089;28;20202;-86
2023/05/26 07:27:52;;;;;;;32.17;11.95;;;10.70;99.90;;;;;;5016301;28;20675;-86
2023/05/26 07:30:18;;;;;;;32.38;11.93;;;10.80;99.90;;;;;;5016865;28;20687;-85
2023/05/26 07:32:44;;;;;;;30.17;11.43;;;10.80;99.90;;;;;;5018410;28;20667;-86
2023/05/26 07:35:10;;;;;;;29.67;10.27;;;10.90;99.90;;;;;;5017052;28;20207;-86
2023/05/26 07:37:35;;;;;;;38.00;11.85;;;11.00;99.90;;;;;;5016255;28;20180;-86
2023/05/26 07:40:04;;;;;;;24.33;11.60;;;11.00;99.90;;;;;;5015962;28;20183;-86
2023/05/26 07:42:29;;;;;;;39.67;12.35;;;11.00;99.90;;;;;;5016153;28;20215;-86
2023/05/26 07:44:55;;;;;;;31.13;11.73;;;11.00;99.90;;;;;;5016228;28;20233;-86
2023/05/26 07:47:22;;;;;;;36.40;12.60;;;11.10;99.90;;;;;;5016801;28;20200;-86
2023/05/26 07:49:47;;;;;;;27.27;12.73;;;11.30;99.90;;;;;;5016572;28;20587;-86
2023/05/26 07:52:13;;;;;;;26.55;11.85;;;11.20;99.90;;;;;;5016041;28;20178;-86
2023/05/26 07:54:40;;;;;;;29.48;11.82;;;11.10;99.90;;;;;;5015749;28;20560;-86
2023/05/26 07:57:06;;;;;;;32.88;12.43;;;11.20;99.90;;;;;;5015751;28;20263;-86
2023/05/26 07:59:32;;;;;;;31.08;12.88;;;11.50;99.90;;;;;;5015410;28;20206;-85
2023/05/26 08:01:58;;;;;;;30.48;13.55;;;11.70;99.90;;;;;;5015622;28;20221;-86
2023/05/26 08:04:23;;;;;;;32.78;12.52;;;11.90;99.90;;;;;;5015496;28;20219;-86
2023/05/26 08:06:49;;;;;;;33.42;12.13;;;12.00;99.90;;;;;;5015532;28;20184;-86
2023/05/26 08:09:15;;;;;;;34.33;11.93;;;12.20;99.90;;;;;;5016643;28;20273;-85
2023/05/26 08:11:41;;;;;;;29.80;11.65;;;12.40;99.90;;;;;;5015819;28;20176;-86
2023/05/26 08:14:07;;;;;;;30.05;11.00;;;12.40;99.90;;;;;;5016035;28;20279;-86
2023/05/26 08:16:33;;;;;;;28.75;10.43;;;12.50;99.90;;;;;;5015929;28;20226;-86
2023/05/26 08:18:59;;;;;;;31.58;11.55;;;12.60;99.90;;;;;;5017513;28;20214;-86
2023/05/26 08:21:25;;;;;;;21.67;10.10;;;12.90;99.90;;;;;;5015768;28;20184;-86
2023/05/26 08:23:51;;;;;;;31.73;10.40;;;13.20;99.90;;;;;;5016333;28;20203;-87
2023/05/26 08:26:17;;;;;;;29.98;10.25;;;13.40;99.90;;;;;;5015874;28;20568;-87
2023/05/26 08:28:42;;;;;;;26.35;10.57;;;13.60;99.90;;;;;;5015303;28;20200;-86
2023/05/26 08:31:08;;;;;;;23.27;9.90;;;13.90;99.90;;;;;;5015437;28;20176;-86
2023/05/26 08:33:34;;;;;;;29.65;11.00;;;14.00;96.00;;;;;;5015272;28;20200;-86
2023/05/26 08:36:00;;;;;;;27.42;9.75;;;14.50;56.10;;;;;;5014971;28;20193;-86
2023/05/26 08:38:25;;;;;;;27.67;9.25;;;14.90;82.30;;;;;;5015208;28;20207;-86
2023/05/26 08:40:55;;;;;;;23.58;9.55;;;15.40;1.00;;;;;;5015643;28;20290;-86
2023/05/26 08:43:26;;;;;;;29.25;10.07;;;15.80;1.00;;;;;;5015089;28;20226;-86
2023/05/26 08:45:53;;;;;;;29.80;9.90;;;15.90;99.90;;;;;;5015795;28;20160;-87
2023/05/26 08:48:20;;;;;;;24.08;9.43;;;15.90;99.90;;;;;;5014676;28;20695;-87
2023/05/26 08:50:49;;;;;;;31.95;9.85;;;15.90;99.90;;;;;;5015012;28;20175;-86
2023/05/26 08:53:15;;;;;;;23.02;9.80;;;15.80;99.90;;;;;;5015000;28;20179;-86
2023/05/26 08:55:41;;;;;;;29.90;9.88;;;16.10;1.00;;;;;;5014764;28;20186;-86
2023/05/26 08:58:08;;;;;;;23.88;9.68;;;15.80;97.90;;;;;;5014753;28;20179;-86
2023/05/26 09:00:34;;;;;;;24.38;9.18;;;15.70;1.00;;;;;;5014416;28;20187;-86
2023/05/26 09:03:01;;;;;;;34.53;9.40;;;15.60;1.00;;;;;;5014194;28;20599;-86
2023/05/26 09:05:29;;;;;;;22.65;7.75;;;15.60;1.00;;;;;;5014296;28;20192;-86
2023/05/26 09:07:55;;;;;;;27.40;9.13;;;15.60;1.00;;;;;;5014223;28;20215;-86
2023/05/26 09:10:22;;;;;;;32.33;11.65;;;15.90;1.00;;;;;;5014259;28;20790;-86
2023/05/26 09:12:48;;;;;;;28.85;10.25;;;16.20;1.00;;;;;;5014403;28;20190;-86
2023/05/26 09:15:20;;;;;;;22.40;8.98;;;16.50;99.90;;;;;;5014535;28;20199;-86
2023/05/26 09:17:47;;;;;;;28.00;8.90;;;16.60;1.00;;;;;;5014338;28;20318;-86
2023/05/26 09:20:13;;;;;;;23.60;8.35;;;16.80;99.90;;;;;;5014115;28;20267;-86
2023/05/26 09:22:39;;;;;;;29.95;9.25;;;16.90;99.90;;;;;;5014080;28;20184;-85
2023/05/26 09:25:05;;;;;;;21.20;7.80;;;17.10;99.90;;;;;;5014191;28;20200;-85
2023/05/26 09:27:31;;;;;;;24.08;8.73;;;17.60;1.00;;;;;;5014049;28;20211;-86
2023/05/26 09:30:00;;;;;;;21.10;8.75;;;17.50;99.90;;;;;;5013822;28;20203;-86
2023/05/26 09:32:27;;;;;;;26.92;9.02;;;17.40;1.00;;;;;;5012758;28;20233;-86
2023/05/26 09:34:58;;;;;;;21.27;7.82;;;17.20;1.00;;;;;;5013794;28;20195;-86
2023/05/26 09:37:28;;;;;;;31.60;9.65;;;17.40;1.00;;;;;;5015099;28;20148;-86
2023/05/26 09:39:54;;;;;;;28.13;8.88;;;17.70;1.00;;;;;;5013527;28;20183;-85
2023/05/26 09:42:21;;;;;;;26.17;9.10;;;18.00;99.90;;;;;;5013866;28;20664;-86
2023/05/26 09:44:55;;;;;;;27.83;8.68;;;18.00;1.00;;;;;;5013546;28;20294;-86
2023/05/26 09:47:21;;;;;;;24.20;8.70;;;17.70;1.00;;;;;;5013374;28;20209;-86
2023/05/26 09:49:47;;;;;;;21.95;8.80;;;17.90;1.00;;;;;;5013657;28;20199;-87
2023/05/26 09:52:13;;;;;;;23.70;8.18;;;18.20;1.00;;;;;;5014740;28;20182;-86
2023/05/26 09:54:40;;;;;;;28.55;8.75;;;18.00;1.00;;;;;;5013271;28;20196;-86
2023/05/26 09:57:11;;;;;;;28.10;8.90;;;17.90;99.90;;;;;;5013563;28;20659;-86
2023/05/26 09:59:40;;;;;;;23.02;7.85;;;17.80;99.90;;;;;;5013351;28;20184;-85
2023/05/26 10:02:22;;;;;;;25.77;8.02;;;17.80;99.90;;;;;;5013553;28;20207;-85
2023/05/26 10:04:49;;;;;;;24.42;9.15;;;18.00;99.90;;;;;;5013766;28;20210;-85
2023/05/26 10:07:34;;;;;;;28.15;8.77;;;17.70;99.90;;;;;;5013991;28;20739;-86
2023/05/26 10:10:01;;;;;;;20.10;6.93;;;17.70;1.00;;;;;;5013449;28;20207;-86
2023/05/26 10:12:34;;;;;;;21.75;7.88;;;17.40;99.90;;;;;;5014311;28;20180;-86
2023/05/26 10:15:02;;;;;;;22.38;7.88;;;17.50;99.90;;;;;;5015056;28;20222;-85
2023/05/26 10:17:28;;;;;;;26.65;7.03;;;17.20;1.00;;;;;;5014208;28;20171;-86
2023/05/26 10:19:55;;;;;;;27.17;8.52;;;16.90;1.00;;;;;;5013573;28;20167;-86
2023/05/26 10:22:38;;;;;;;28.25;7.43;;;17.00;99.90;;;;;;5013686;28;20180;-86
2023/05/26 10:25:13;;;;;;;25.05;7.53;;;17.10;99.90;;;;;;5015015;28;20266;-86
2023/05/26 10:28:14;;;;;;;28.63;7.38;;;17.30;1.00;;;;;;5014084;28;20171;-86
2023/05/26 10:30:41;;;;;;;25.23;8.05;;;17.30;1.00;;;;;;5003820;28;20192;-86
2023/05/26 10:33:11;;;;;;;24.73;7.55;;;17.10;1.00;;;;;;5014251;28;20267;-85
2023/05/26 10:35:51;;;;;;;21.55;7.47;;;17.30;38.50;;;;;;5013307;28;20641;-86
2023/05/26 10:38:17;;;;;;;24.48;8.00;;;17.60;99.90;;;;;;5013218;28;20270;-85
2023/05/26 10:40:52;;;;;;;21.95;7.38;;;17.70;99.90;;;;;;5013124;28;20215;-86
2023/05/26 10:43:22;;;;;;;24.95;8.02;;;17.80;99.90;;;;;;5014190;28;20178;-86
2023/05/26 10:45:59;;;;;;;24.70;7.50;;;18.10;99.90;;;;;;5018116;28;20183;-86
2023/05/26 10:48:32;;;;;;;23.27;8.32;;;18.20;99.90;;;;;;5017641;28;20256;-86
2023/05/26 10:50:58;;;;;;;27.85;7.05;;;18.20;99.90;;;;;;5018360;28;20172;-85
2023/05/26 10:53:25;;;;;;;19.75;6.50;;;18.30;1.00;;;;;;5016967;28;20175;-85
2023/05/26 10:55:58;;;;;;;25.08;7.65;;;17.70;99.90;;;;;;5017026;28;20176;-85
2023/05/26 10:58:26;;;;;;;20.73;7.53;;;17.40;1.00;;;;;;5017125;28;20183;-85
2023/05/26 11:01:09;;;;;;;23.85;7.50;;;17.50;99.90;;;;;;5017050;28;20180;-85
2023/05/26 11:03:41;;;;;;;20.77;7.05;;;17.70;99.90;;;;;;5016658;28;20200;-85
2023/05/26 11:06:08;;;;;;;26.65;8.32;;;17.40;99.90;;;;;;5016937;28;20183;-85
2023/05/26 11:08:40;;;;;;;19.95;7.30;;;17.40;99.90;;;;;;5016794;28;20218;-85
2023/05/26 11:11:09;;;;;;;20.98;7.35;;;17.60;1.00;;;;;;5016723;28;20183;-85
2023/05/26 11:13:41;;;;;;;21.52;7.72;;;17.90;99.90;;;;;;5016566;28;20566;-86
2023/05/26 11:16:24;;;;;;;23.13;8.45;;;18.10;99.90;;;;;;5016600;28;20262;-85
2023/05/26 11:19:05;;;;;;;17.02;6.30;;;18.50;1.00;;;;;;5016538;28;20180;-85
2023/05/26 11:21:34;;;;;;;20.95;7.07;;;18.50;99.90;;;;;;5017734;28;20164;-86
2023/05/26 11:24:02;;;;;;;18.83;7.00;;;18.50;1.00;;;;;;5016270;28;20700;-85
2023/05/26 11:26:33;;;;;;;22.00;7.18;;;18.70;1.00;;;;;;5017754;28;20517;-85
2023/05/26 11:29:04;;;;;;;20.05;6.70;;;18.60;94.80;;;;;;5016230;28;20207;-85
2023/05/26 11:31:30;;;;;;;19.67;7.07;;;18.90;99.90;;;;;;5017549;28;20239;-85
2023/05/26 11:33:57;;;;;;;23.50;8.13;;;19.00;1.00;;;;;;5016017;28;20668;-86
2023/05/26 11:36:24;;;;;;;26.60;7.55;;;18.80;1.00;;;;;;5016264;28;20641;-85
2023/05/26 11:38:59;;;;;;;22.60;7.65;;;18.90;1.00;;;;;;5016085;28;20188;-86
2023/05/26 11:41:26;;;;;;;24.55;7.63;;;19.10;99.90;;;;;;5016583;28;20172;-85
2023/05/26 11:43:56;;;;;;;20.52;7.75;;;19.40;1.00;;;;;;5015913;28;20200;-86
2023/05/26 11:46:23;;;;;;;18.02;7.55;;;19.40;1.00;;;;;;5015955;28;20644;-85
2023/05/26 11:48:50;;;;;;;17.90;7.05;;;19.50;1.00;;;;;;5016047;28;20867;-86
2023/05/26 11:51:19;;;;;;;23.23;7.60;;;19.60;1.00;;;;;;5016552;28;20229;-86
2023/05/26 11:53:46;;;;;;;23.45;7.25;;;19.40;99.90;;;;;;5016930;28;20192;-86
2023/05/26 11:56:16;;;;;;;18.05;7.75;;;19.10;1.00;;;;;;5014952;28;20259;-85
2023/05/26 11:58:53;;;;;;;26.25;7.78;;;19.10;99.90;;;;;;5016303;28;20644;-86
2023/05/26 12:01:21;;;;;;;26.30;8.02;;;19.40;1.00;;;;;;5016118;28;20171;-85
2023/05/26 12:03:49;;;;;;;22.92;8.00;;;19.60;99.90;;;;;;5017408;28;20223;-85
2023/05/26 12:06:17;;;;;;;21.65;7.13;;;19.70;99.90;;;;;;5016822;28;20230;-84
2023/05/26 12:08:52;;;;;;;23.63;7.53;;;20.00;1.00;;;;;;5016313;28;20203;-85
2023/05/26 12:11:22;;;;;;;24.17;7.53;;;19.60;11.90;;;;;;5017756;28;20529;-84
2023/05/26 12:13:54;;;;;;;24.55;8.25;;;19.40;1.00;;;;;;5016895;28;20248;-85
2023/05/26 12:16:24;;;;;;;21.67;7.82;;;19.20;1.00;;;;;;5016778;28;20243;-85
2023/05/26 12:18:52;;;;;;;21.95;7.07;;;18.70;99.90;;;;;;5015176;28;20215;-85
2023/05/26 12:21:18;;;;;;;25.63;7.82;;;18.70;1.00;;;;;;5015249;28;20529;-85
2023/05/26 12:23:46;;;;;;;26.33;7.97;;;18.80;1.00;;;;;;5016516;28;20257;-84
2023/05/26 12:26:25;;;;;;;25.23;7.68;;;18.80;1.00;;;;;;5015434;28;20184;-85
2023/05/26 12:29:09;;;;;;;28.42;7.72;;;18.60;99.90;;;;;;5015927;28;20195;-85
2023/05/26 12:31:40;;;;;;;22.02;8.00;;;18.80;99.90;;;;;;5015141;28;20183;-86
2023/05/26 12:34:07;;;;;;;21.33;7.32;;;18.90;99.90;;;;;;5015292;28;20636;-86
2023/05/26 12:36:39;;;;;;;22.15;7.60;;;19.20;99.90;;;;;;5014871;28;20179;-85
2023/05/26 12:39:06;;;;;;;27.55;8.45;;;19.50;1.00;;;;;;5014893;28;20603;-86
2023/05/26 12:41:32;;;;;;;23.65;7.10;;;19.80;99.90;;;;;;5014812;28;20267;-86
2023/05/26 12:44:00;;;;;;;22.38;6.75;;;19.90;1.00;;;;;;5016354;28;20227;-85